Pagina principale
METAR-TAF:

METAR-TAF

Aeroporti :

Aeroporto di Treviso-Istrana

Treviso, Italia

latitudine: 45-41N, longitudine: 012-06E, altezza: 45 m

Osservazione

Il bollettino è stato emesso 1 ora e 0 minuti fa, alle 08:55 UTC
Vento 3 kt da nord
Temperature 19°C
Umidità 78%
Pressione 1019 hPa
Visibilità 10 km o più
Nubi sparse ad un'altezza di 3000 ft
Nuvoloso ad un'altezza di 9000 ft

METAR: LIPS 170855Z 01003KT 9999 SCT030 BKN090 19/15 Q1019 RMK BKN VIS MIN 9999 WIND THR26 03002KT WIND THR08 01004KT BLU

Ora: 11:55 (09:55 UTC)

Previsione

Il bollettino è stato emesso 1 ora e 55 minuti fa, alle 08:00 UTC
Previsione valida dal 17 alle 09 UTC al 17 alle 18 UTC
Vento 5 kt da nord/nord-est
Visibilità 10 km o più
Nuvoloso ad un'altezza di 8000 ft
Temporaneamente
dal 17 alle 09 UTC al 17 alle 12 UTC
Nubi sparse ad un'altezza di 3000 ft
Nuvoloso ad un'altezza di 8000 ft
pioggia

TAF: LIPS 170800Z 1709/1718 03005KT 9999 BKN080 TEMPO 1709/1712 RA SCT030 BKN080

Osservazioni e previsioni meteorologiche di più di 4000 aeroporti (messaggi METAR e TAF).

Le stazioni disponibili sono rappresentate dai dischi gialli e rossi sulla carta.

Puntare il mouse per vedere il nome della stazione.

Clicca sopra per visualizzare le osservazioni e previsioni meteorologiche.

Per cambiare la mappa : fare clic sui pulsanti verdi con una croce nera per ingrandire, il pulsante verde con un trattino per diminuire, o sulla freccia verde per le mappe adiacenti.


METAR-TAF: